createdAt,value
2019-05-30T00:00:21.482Z,1016.84
2019-05-30T00:01:21.479Z,1016.88
2019-05-30T00:02:21.466Z,1016.84
2019-05-30T00:03:21.464Z,1016.84
2019-05-30T00:04:21.454Z,1016.87
2019-05-30T00:05:21.443Z,1016.80
2019-05-30T00:06:21.469Z,1016.79
2019-05-30T00:07:21.446Z,1016.78
2019-05-30T00:08:21.496Z,1016.77
2019-05-30T00:09:21.468Z,1016.79
2019-05-30T00:10:21.460Z,1016.78
2019-05-30T00:11:21.456Z,1016.77
2019-05-30T00:12:21.421Z,1016.76
2019-05-30T00:13:21.421Z,1016.76
2019-05-30T00:14:21.420Z,1016.77
2019-05-30T00:15:21.623Z,1016.79
2019-05-30T00:16:21.412Z,1016.80
2019-05-30T00:17:21.415Z,1016.81
2019-05-30T00:18:21.408Z,1016.81
2019-05-30T00:19:21.405Z,1016.83
2019-05-30T00:20:21.401Z,1016.79
2019-05-30T00:21:21.394Z,1016.80
2019-05-30T00:22:21.660Z,1016.79
2019-05-30T00:23:21.594Z,1016.83
2019-05-30T00:24:21.395Z,1016.81
2019-05-30T00:25:21.382Z,1016.85
2019-05-30T00:27:21.379Z,1016.78
2019-05-30T00:28:21.373Z,1016.80
2019-05-30T00:29:21.576Z,1016.78
2019-05-30T00:30:24.701Z,1016.80
2019-05-30T00:31:21.587Z,1016.80
2019-05-30T00:32:21.356Z,1016.82
2019-05-30T00:33:21.365Z,1016.81
2019-05-30T00:34:21.568Z,1016.82
2019-05-30T00:35:21.580Z,1016.81
2019-05-30T00:36:21.563Z,1016.83
2019-05-30T00:37:21.548Z,1016.87
2019-05-30T00:38:21.355Z,1016.90
2019-05-30T00:39:21.373Z,1016.89
2019-05-30T00:40:21.343Z,1016.90
2019-05-30T00:41:21.327Z,1016.91
2019-05-30T00:42:21.353Z,1016.93
2019-05-30T00:43:21.328Z,1016.89
2019-05-30T00:44:21.319Z,1016.88
2019-05-30T00:45:21.585Z,1016.88
2019-05-30T00:46:21.345Z,1016.89
2019-05-30T00:47:21.312Z,1016.85
2019-05-30T00:48:21.315Z,1016.82
2019-05-30T00:49:21.308Z,1016.83
2019-05-30T00:50:21.298Z,1016.80
2019-05-30T00:51:21.307Z,1016.80
2019-05-30T00:52:21.307Z,1016.78
2019-05-30T00:53:21.503Z,1016.83
2019-05-30T00:54:21.316Z,1016.82
2019-05-30T00:55:21.283Z,1016.81
2019-05-30T00:56:21.298Z,1016.82
2019-05-30T00:57:21.287Z,1016.85
2019-05-30T00:58:21.273Z,1016.85
2019-05-30T00:59:21.313Z,1016.88
2019-05-30T01:00:21.276Z,1016.84
2019-05-30T01:01:21.272Z,1016.84
2019-05-30T01:02:21.279Z,1016.82
2019-05-30T01:03:21.282Z,1016.78
2019-05-30T01:04:21.264Z,1016.82
2019-05-30T01:05:21.258Z,1016.78
2019-05-30T01:06:21.256Z,1016.80
2019-05-30T01:07:21.248Z,1016.78
2019-05-30T01:08:21.249Z,1016.81
2019-05-30T01:09:21.268Z,1016.81
2019-05-30T01:10:21.267Z,1016.82
2019-05-30T01:11:21.251Z,1016.81
2019-05-30T01:12:21.253Z,1016.77
2019-05-30T01:13:21.241Z,1016.78
2019-05-30T01:14:21.248Z,1016.77
2019-05-30T01:15:21.239Z,1016.74
2019-05-30T01:16:21.230Z,1016.69
2019-05-30T01:17:21.227Z,1016.67
2019-05-30T01:18:21.225Z,1016.66
2019-05-30T01:19:21.222Z,1016.70
2019-05-30T01:20:21.213Z,1016.67
2019-05-30T01:21:21.213Z,1016.67
2019-05-30T01:22:21.211Z,1016.66
2019-05-30T01:23:21.205Z,1016.72
2019-05-30T01:24:21.212Z,1016.73
2019-05-30T01:25:21.212Z,1016.72
2019-05-30T01:26:21.199Z,1016.75
2019-05-30T01:27:21.209Z,1016.76
2019-05-30T01:28:21.191Z,1016.75
2019-05-30T01:29:21.391Z,1016.77
2019-05-30T01:30:21.230Z,1016.80
2019-05-30T01:31:21.193Z,1016.76
2019-05-30T01:32:21.185Z,1016.77
2019-05-30T01:33:21.219Z,1016.73
2019-05-30T01:34:21.184Z,1016.77
2019-05-30T01:35:21.192Z,1016.75
2019-05-30T01:36:21.171Z,1016.74
2019-05-30T01:37:21.169Z,1016.75
2019-05-30T01:38:21.159Z,1016.75
2019-05-30T01:39:21.158Z,1016.70
2019-05-30T01:40:21.152Z,1016.76
2019-05-30T01:41:21.158Z,1016.77
2019-05-30T01:42:21.158Z,1016.73
2019-05-30T01:43:21.147Z,1016.75
2019-05-30T01:44:21.147Z,1016.75
2019-05-30T01:45:21.150Z,1016.75
2019-05-30T01:46:21.160Z,1016.73
2019-05-30T01:47:21.141Z,1016.73
2019-05-30T01:48:21.125Z,1016.73
2019-05-30T01:49:21.128Z,1016.72
2019-05-30T01:50:21.122Z,1016.71
2019-05-30T01:51:21.122Z,1016.73
2019-05-30T01:52:21.117Z,1016.76
2019-05-30T01:53:21.131Z,1016.77
2019-05-30T01:54:21.119Z,1016.72
2019-05-30T01:55:21.120Z,1016.74
2019-05-30T01:56:21.106Z,1016.71
2019-05-30T01:57:21.110Z,1016.73
2019-05-30T01:58:21.300Z,1016.70
2019-05-30T01:59:21.105Z,1016.66
2019-05-30T02:00:21.765Z,1016.68
2019-05-30T02:01:25.138Z,1016.67
2019-05-30T02:02:21.094Z,1016.67
2019-05-30T02:03:21.084Z,1016.66
2019-05-30T02:04:21.078Z,1016.65
2019-05-30T02:05:21.080Z,1016.64
2019-05-30T02:06:21.074Z,1016.66
2019-05-30T02:07:21.072Z,1016.61
2019-05-30T02:08:21.100Z,1016.60
2019-05-30T02:09:21.067Z,1016.63
2019-05-30T02:10:21.077Z,1016.61
2019-05-30T02:11:21.078Z,1016.60
2019-05-30T02:12:21.062Z,1016.58
2019-05-30T02:13:21.095Z,1016.60
2019-05-30T02:14:21.066Z,1016.62
2019-05-30T02:15:21.078Z,1016.58
2019-05-30T02:16:21.056Z,1016.58
2019-05-30T02:17:21.063Z,1016.54
2019-05-30T02:18:21.041Z,1016.60
2019-05-30T02:19:21.048Z,1016.56
2019-05-30T02:20:21.065Z,1016.57
2019-05-30T02:21:21.050Z,1016.58
2019-05-30T02:22:21.037Z,1016.59
2019-05-30T02:23:21.037Z,1016.59
2019-05-30T02:24:21.045Z,1016.63
2019-05-30T02:25:21.020Z,1016.63
2019-05-30T02:26:21.030Z,1016.62
2019-05-30T02:27:21.027Z,1016.64
2019-05-30T02:28:21.061Z,1016.67
2019-05-30T02:29:21.010Z,1016.65
2019-05-30T02:30:21.029Z,1016.62
2019-05-30T02:31:37.873Z,1016.60
2019-05-30T02:32:21.002Z,1016.59
2019-05-30T02:33:21.004Z,1016.60
2019-05-30T02:34:21.013Z,1016.61
2019-05-30T02:35:20.994Z,1016.66
2019-05-30T02:36:20.990Z,1016.66
2019-05-30T02:37:20.986Z,1016.66
2019-05-30T02:38:20.980Z,1016.69
2019-05-30T02:39:20.999Z,1016.70
2019-05-30T02:40:20.990Z,1016.67
2019-05-30T02:41:20.971Z,1016.66
2019-05-30T02:42:20.984Z,1016.69
2019-05-30T02:43:20.975Z,1016.68
2019-05-30T02:44:20.967Z,1016.70
2019-05-30T02:45:20.969Z,1016.72
2019-05-30T02:46:20.963Z,1016.72
2019-05-30T02:47:22.529Z,1016.71
2019-05-30T02:48:20.960Z,1016.73
2019-05-30T02:49:20.952Z,1016.78
2019-05-30T02:50:20.950Z,1016.76
2019-05-30T02:51:20.964Z,1016.74
2019-05-30T02:52:20.950Z,1016.77
2019-05-30T02:53:20.940Z,1016.77
2019-05-30T02:54:20.940Z,1016.76
2019-05-30T02:55:20.938Z,1016.79
2019-05-30T02:56:20.935Z,1016.80
2019-05-30T02:57:20.925Z,1016.82
2019-05-30T02:58:20.952Z,1016.81
2019-05-30T02:59:20.939Z,1016.83
2019-05-30T03:00:21.122Z,1016.81
2019-05-30T03:01:21.127Z,1016.79
2019-05-30T03:02:21.114Z,1016.83
2019-05-30T03:03:20.917Z,1016.81
2019-05-30T03:04:20.909Z,1016.79
2019-05-30T03:05:20.909Z,1016.82
2019-05-30T03:06:21.124Z,1016.77
2019-05-30T03:07:21.105Z,1016.80
2019-05-30T03:08:20.904Z,1016.81
2019-05-30T03:09:20.896Z,1016.78
2019-05-30T03:10:20.916Z,1016.82
2019-05-30T03:11:20.890Z,1016.86
2019-05-30T03:12:20.884Z,1016.87
2019-05-30T03:13:20.885Z,1016.89
2019-05-30T03:14:20.903Z,1016.88
2019-05-30T03:15:20.878Z,1016.91
2019-05-30T03:16:20.877Z,1016.86
2019-05-30T03:17:20.874Z,1016.90
2019-05-30T03:18:20.880Z,1016.86
2019-05-30T03:19:20.878Z,1016.88
2019-05-30T03:20:23.164Z,1016.89
2019-05-30T03:21:20.869Z,1016.92
2019-05-30T03:22:20.855Z,1016.90
2019-05-30T03:23:20.851Z,1016.88
2019-05-30T03:24:20.856Z,1016.90
2019-05-30T03:25:20.867Z,1016.88
2019-05-30T03:26:20.852Z,1016.87
2019-05-30T03:27:20.847Z,1016.89
2019-05-30T03:28:20.846Z,1016.90
2019-05-30T03:29:21.053Z,1016.90
2019-05-30T03:30:27.246Z,1016.93
2019-05-30T03:31:27.727Z,1016.93
2019-05-30T03:33:37.465Z,1016.93
2019-05-30T03:34:27.476Z,1016.93
2019-05-30T03:35:28.842Z,1016.96
2019-05-30T03:36:30.212Z,1016.97
2019-05-30T03:37:28.663Z,1016.97
2019-05-30T03:38:20.816Z,1016.97
2019-05-30T03:39:20.806Z,1016.99
2019-05-30T03:40:22.822Z,1017.04
2019-05-30T03:41:20.821Z,1017.02
2019-05-30T03:42:21.012Z,1017.08
2019-05-30T03:43:20.828Z,1017.09
2019-05-30T03:44:20.798Z,1017.08
2019-05-30T03:45:20.828Z,1017.11
2019-05-30T03:46:20.814Z,1017.11
2019-05-30T03:47:20.806Z,1017.12
2019-05-30T03:48:20.815Z,1017.10
2019-05-30T03:49:20.787Z,1017.12
2019-05-30T03:50:20.791Z,1017.07
2019-05-30T03:51:20.787Z,1017.11
2019-05-30T03:52:20.786Z,1017.07
2019-05-30T03:53:20.771Z,1017.05
2019-05-30T03:54:20.778Z,1017.02
2019-05-30T03:55:20.792Z,1017.03
2019-05-30T03:56:20.786Z,1017.02
2019-05-30T03:57:20.776Z,1017.01
2019-05-30T03:58:20.925Z,1016.95
2019-05-30T03:59:20.757Z,1016.94
2019-05-30T04:00:20.781Z,1016.93
2019-05-30T04:01:20.764Z,1016.91
2019-05-30T04:02:20.756Z,1016.92
2019-05-30T04:03:20.745Z,1016.93
2019-05-30T04:04:20.758Z,1016.89
2019-05-30T04:05:20.747Z,1016.90
2019-05-30T04:06:20.757Z,1016.98
2019-05-30T04:07:20.743Z,1017.03
2019-05-30T04:08:20.738Z,1017.02
2019-05-30T04:09:24.520Z,1017.02
2019-05-30T04:10:20.743Z,1017.01
2019-05-30T04:11:20.722Z,1017.00
2019-05-30T04:12:20.724Z,1017.02
2019-05-30T04:13:20.727Z,1017.01
2019-05-30T04:14:20.721Z,1016.98
2019-05-30T04:15:20.723Z,1016.98
2019-05-30T04:16:20.711Z,1016.99
2019-05-30T04:17:20.741Z,1017.02
2019-05-30T04:18:20.708Z,1017.02
2019-05-30T04:19:20.705Z,1017.05
2019-05-30T04:20:23.002Z,1017.08
2019-05-30T04:21:21.660Z,1017.10
2019-05-30T04:22:20.700Z,1017.15
2019-05-30T04:23:20.692Z,1017.15
2019-05-30T04:24:20.694Z,1017.17
2019-05-30T04:25:20.692Z,1017.14
2019-05-30T04:26:20.701Z,1017.17
2019-05-30T04:27:20.678Z,1017.17
2019-05-30T04:28:20.696Z,1017.16
2019-05-30T04:29:20.682Z,1017.14
2019-05-30T04:30:20.901Z,1017.18
2019-05-30T04:31:20.881Z,1017.16
2019-05-30T04:32:20.669Z,1017.14
2019-05-30T04:33:32.563Z,1017.20
2019-05-30T04:34:20.862Z,1017.14
2019-05-30T04:35:20.675Z,1017.14
2019-05-30T04:36:20.665Z,1017.16
2019-05-30T04:37:20.687Z,1017.15
2019-05-30T04:38:20.673Z,1017.22
2019-05-30T04:39:20.666Z,1017.22
2019-05-30T04:40:20.659Z,1017.16
2019-05-30T04:41:21.114Z,1017.06
2019-05-30T04:42:20.936Z,1017.03
2019-05-30T04:43:20.644Z,1017.01
2019-05-30T04:44:20.696Z,1017.02
2019-05-30T04:45:20.638Z,1016.98
2019-05-30T04:46:21.887Z,1017.01
2019-05-30T04:47:20.966Z,1017.06
2019-05-30T04:48:21.410Z,1017.07
2019-05-30T04:49:21.611Z,1017.16
2019-05-30T04:50:20.861Z,1017.13
2019-05-30T04:51:21.645Z,1017.18
2019-05-30T04:52:24.463Z,1017.15
2019-05-30T04:53:21.156Z,1017.16
2019-05-30T04:54:21.386Z,1017.20
2019-05-30T04:55:23.032Z,1017.16
2019-05-30T04:56:22.030Z,1017.14
2019-05-30T04:57:25.762Z,1017.14
2019-05-30T04:58:23.987Z,1017.16
2019-05-30T04:59:21.959Z,1017.16
2019-05-30T05:00:21.551Z,1017.12
2019-05-30T05:01:22.023Z,1017.13
2019-05-30T05:02:22.977Z,1017.15
2019-05-30T05:03:41.725Z,1017.21
2019-05-30T05:04:21.611Z,1017.18
2019-05-30T05:05:26.582Z,1017.17
2019-05-30T05:06:22.005Z,1017.21
2019-05-30T05:07:22.014Z,1017.19
2019-05-30T05:08:21.974Z,1017.21
2019-05-30T05:09:22.173Z,1017.20
2019-05-30T05:10:22.326Z,1017.23
2019-05-30T05:11:23.634Z,1017.21
2019-05-30T05:12:20.569Z,1017.24
2019-05-30T05:13:20.573Z,1017.20
2019-05-30T05:14:20.661Z,1017.22
2019-05-30T05:15:20.753Z,1017.24
2019-05-30T05:16:32.637Z,1017.24
2019-05-30T05:17:20.927Z,1017.22
2019-05-30T05:18:21.104Z,1017.27
2019-05-30T05:19:22.161Z,1017.23
2019-05-30T05:20:21.448Z,1017.25
2019-05-30T05:21:21.043Z,1017.19
2019-05-30T05:22:21.170Z,1017.24
2019-05-30T05:23:21.344Z,1017.26
2019-05-30T05:24:21.473Z,1017.24
2019-05-30T05:25:21.482Z,1017.25
2019-05-30T05:26:21.616Z,1017.26
2019-05-30T05:27:21.692Z,1017.25
2019-05-30T05:28:20.534Z,1017.28
2019-05-30T05:29:20.528Z,1017.26
2019-05-30T05:30:20.521Z,1017.26
2019-05-30T05:31:20.548Z,1017.28
2019-05-30T05:32:20.540Z,1017.27
2019-05-30T05:33:20.672Z,1017.26
2019-05-30T05:34:20.712Z,1017.28
2019-05-30T05:35:20.856Z,1017.28
2019-05-30T05:36:20.967Z,1017.31
2019-05-30T05:37:21.159Z,1017.26
2019-05-30T05:38:20.506Z,1017.26
2019-05-30T05:39:20.517Z,1017.30
2019-05-30T05:40:20.496Z,1017.27
2019-05-30T05:41:20.493Z,1017.30
2019-05-30T05:42:20.499Z,1017.30
2019-05-30T05:43:20.505Z,1017.29
2019-05-30T05:44:20.522Z,1017.31
2019-05-30T05:45:20.617Z,1017.28
2019-05-30T05:46:20.482Z,1017.28
2019-05-30T05:47:20.531Z,1017.26
2019-05-30T05:48:20.526Z,1017.29
2019-05-30T05:49:20.642Z,1017.30
2019-05-30T05:50:20.562Z,1017.32
2019-05-30T05:51:20.817Z,1017.28
2019-05-30T05:52:20.764Z,1017.29
2019-05-30T05:53:20.851Z,1017.28
2019-05-30T05:54:20.888Z,1017.27
2019-05-30T05:55:20.862Z,1017.30
2019-05-30T05:56:20.851Z,1017.30
2019-05-30T05:57:20.816Z,1017.29
2019-05-30T05:58:20.869Z,1017.32
2019-05-30T05:59:20.990Z,1017.30
2019-05-30T06:00:21.287Z,1017.29
2019-05-30T06:01:21.407Z,1017.31
2019-05-30T06:02:21.099Z,1017.32
2019-05-30T06:03:20.496Z,1017.34
2019-05-30T06:04:21.128Z,1017.34
2019-05-30T06:05:20.441Z,1017.39
2019-05-30T06:06:21.300Z,1017.36
2019-05-30T06:07:20.439Z,1017.40
2019-05-30T06:08:21.489Z,1017.42
2019-05-30T06:09:20.669Z,1017.42
2019-05-30T06:10:21.647Z,1017.43
2019-05-30T06:11:20.656Z,1017.47
2019-05-30T06:12:21.648Z,1017.46
2019-05-30T06:13:20.823Z,1017.46
2019-05-30T06:14:21.770Z,1017.43
2019-05-30T06:15:20.826Z,1017.47
2019-05-30T06:16:20.427Z,1017.50
2019-05-30T06:17:21.159Z,1017.50
2019-05-30T06:18:20.415Z,1017.49
2019-05-30T06:19:21.230Z,1017.52
2019-05-30T06:20:21.214Z,1017.49
2019-05-30T06:21:21.263Z,1017.50
2019-05-30T06:22:21.432Z,1017.51
2019-05-30T06:23:21.567Z,1017.49
2019-05-30T06:24:21.478Z,1017.52
2019-05-30T06:25:24.046Z,1017.49
2019-05-30T06:26:20.432Z,1017.52
2019-05-30T06:27:20.391Z,1017.53
2019-05-30T06:28:20.391Z,1017.52
2019-05-30T06:29:20.383Z,1017.53
2019-05-30T06:30:20.491Z,1017.54
2019-05-30T06:31:20.402Z,1017.51
2019-05-30T06:32:20.934Z,1017.53
2019-05-30T06:33:20.641Z,1017.57
2019-05-30T06:34:29.190Z,1017.60
2019-05-30T06:35:21.431Z,1017.63
2019-05-30T06:36:20.972Z,1017.61
2019-05-30T06:37:21.059Z,1017.56
2019-05-30T06:38:21.040Z,1017.57
2019-05-30T06:39:21.304Z,1017.61
2019-05-30T06:40:21.374Z,1017.61
2019-05-30T06:41:21.417Z,1017.66
2019-05-30T06:42:21.643Z,1017.63
2019-05-30T06:43:20.352Z,1017.67
2019-05-30T06:44:20.356Z,1017.71
2019-05-30T06:45:21.098Z,1017.69
2019-05-30T06:46:20.356Z,1017.71
2019-05-30T06:47:20.341Z,1017.73
2019-05-30T06:48:20.686Z,1017.71
2019-05-30T06:49:20.638Z,1017.72
2019-05-30T06:50:20.688Z,1017.74
2019-05-30T06:51:20.958Z,1017.71
2019-05-30T06:52:20.892Z,1017.71
2019-05-30T06:53:21.008Z,1017.74
2019-05-30T06:54:21.546Z,1017.69
2019-05-30T06:55:21.113Z,1017.73
2019-05-30T06:56:21.175Z,1017.72
2019-05-30T06:57:21.177Z,1017.73
2019-05-30T06:58:36.191Z,1017.72
2019-05-30T06:59:21.407Z,1017.73
2019-05-30T07:00:21.605Z,1017.73
2019-05-30T07:01:21.828Z,1017.74
2019-05-30T07:02:20.323Z,1017.73
2019-05-30T07:03:20.348Z,1017.76
2019-05-30T07:04:20.747Z,1017.76
2019-05-30T07:05:20.795Z,1017.75
2019-05-30T07:06:20.716Z,1017.73
2019-05-30T07:07:20.397Z,1017.76
2019-05-30T07:08:20.297Z,1017.77
2019-05-30T07:09:20.294Z,1017.73
2019-05-30T07:10:20.301Z,1017.75
2019-05-30T07:11:20.290Z,1017.75
2019-05-30T07:12:20.303Z,1017.78
2019-05-30T07:13:20.318Z,1017.80
2019-05-30T07:14:20.289Z,1017.81
2019-05-30T07:15:20.279Z,1017.81
2019-05-30T07:16:20.275Z,1017.82
2019-05-30T07:17:20.278Z,1017.85
2019-05-30T07:18:20.294Z,1017.85
2019-05-30T07:19:20.271Z,1017.86
2019-05-30T07:20:20.268Z,1017.84
2019-05-30T07:21:20.273Z,1017.85
2019-05-30T07:22:20.281Z,1017.91
2019-05-30T07:23:20.297Z,1017.92
2019-05-30T07:24:20.259Z,1017.86
2019-05-30T07:25:20.261Z,1017.90
2019-05-30T07:26:20.277Z,1017.89
2019-05-30T07:27:20.458Z,1017.93
2019-05-30T07:28:20.263Z,1017.89
2019-05-30T07:29:20.254Z,1017.95
2019-05-30T07:30:20.455Z,1017.93
2019-05-30T07:31:20.449Z,1017.94
2019-05-30T07:32:20.273Z,1017.94
2019-05-30T07:33:20.246Z,1017.93
2019-05-30T07:34:20.245Z,1017.92
2019-05-30T07:35:20.310Z,1017.95
2019-05-30T07:36:20.234Z,1017.96
2019-05-30T07:37:20.232Z,1017.94
2019-05-30T07:38:20.255Z,1017.95
2019-05-30T07:39:20.242Z,1017.97
2019-05-30T07:40:20.226Z,1017.97
2019-05-30T07:41:20.429Z,1018.01
2019-05-30T07:42:20.235Z,1018.00
2019-05-30T07:43:20.448Z,1018.00
2019-05-30T07:44:20.236Z,1018.01
2019-05-30T07:45:20.426Z,1018.03
2019-05-30T07:46:20.218Z,1018.01
2019-05-30T07:47:20.210Z,1018.05
2019-05-30T07:48:20.225Z,1018.07
2019-05-30T07:49:20.225Z,1018.08
2019-05-30T07:50:20.224Z,1018.09
2019-05-30T07:51:23.790Z,1018.08
2019-05-30T07:52:20.418Z,1018.13
2019-05-30T07:53:20.222Z,1018.10
2019-05-30T07:54:20.205Z,1018.13
2019-05-30T07:55:20.280Z,1018.14
2019-05-30T07:56:20.197Z,1018.14
2019-05-30T07:57:20.193Z,1018.15
2019-05-30T07:58:20.195Z,1018.19
2019-05-30T07:59:20.189Z,1018.16
2019-05-30T08:00:20.392Z,1018.12
2019-05-30T08:01:20.187Z,1018.17
2019-05-30T08:02:20.194Z,1018.19
2019-05-30T08:03:20.192Z,1018.16
2019-05-30T08:04:20.188Z,1018.17
2019-05-30T08:05:24.606Z,1018.15
2019-05-30T08:06:20.182Z,1018.15
2019-05-30T08:07:20.378Z,1018.17
2019-05-30T08:08:20.167Z,1018.15
2019-05-30T08:09:20.182Z,1018.12
2019-05-30T08:10:20.167Z,1018.10
2019-05-30T08:11:20.375Z,1018.15
2019-05-30T08:12:20.376Z,1018.19
2019-05-30T08:13:20.158Z,1018.11
2019-05-30T08:14:20.194Z,1018.22
2019-05-30T08:15:20.174Z,1018.15
2019-05-30T08:16:20.189Z,1018.15
2019-05-30T08:17:20.155Z,1018.14
2019-05-30T08:18:20.155Z,1018.12
2019-05-30T08:19:20.162Z,1018.14
2019-05-30T08:20:20.148Z,1018.12
2019-05-30T08:21:20.162Z,1018.08
2019-05-30T08:22:20.153Z,1018.07
2019-05-30T08:23:20.178Z,1018.08
2019-05-30T08:24:20.154Z,1018.10
2019-05-30T08:25:20.146Z,1018.08
2019-05-30T08:26:20.148Z,1018.12
2019-05-30T08:27:20.145Z,1018.08
2019-05-30T08:28:20.163Z,1018.09
2019-05-30T08:29:20.135Z,1018.15
2019-05-30T08:30:20.339Z,1018.12
2019-05-30T08:31:20.129Z,1018.15
2019-05-30T08:32:20.164Z,1018.14
2019-05-30T08:33:21.700Z,1018.14
2019-05-30T08:34:20.333Z,1018.11
2019-05-30T08:35:20.139Z,1018.17
2019-05-30T08:36:20.321Z,1018.15
2019-05-30T08:37:20.321Z,1018.10
2019-05-30T08:38:20.129Z,1018.14
2019-05-30T08:39:20.115Z,1018.13
2019-05-30T08:40:20.112Z,1018.14
2019-05-30T08:41:20.326Z,1018.15
2019-05-30T08:42:20.122Z,1018.14
2019-05-30T08:43:20.104Z,1018.16
2019-05-30T08:44:20.122Z,1018.15
2019-05-30T08:45:20.104Z,1018.16
2019-05-30T08:46:20.111Z,1018.17
2019-05-30T08:47:20.112Z,1018.19
2019-05-30T08:48:20.111Z,1018.19
2019-05-30T08:49:20.095Z,1018.18
2019-05-30T08:50:20.095Z,1018.15
2019-05-30T08:51:20.088Z,1018.17
2019-05-30T08:52:20.086Z,1018.17
2019-05-30T08:53:20.091Z,1018.16
2019-05-30T08:54:20.099Z,1018.18
2019-05-30T08:55:20.081Z,1018.14
2019-05-30T08:56:20.296Z,1018.13
2019-05-30T08:57:20.290Z,1018.09
2019-05-30T08:58:20.081Z,1018.05
2019-05-30T08:59:20.108Z,1018.01
2019-05-30T09:00:20.073Z,1017.99
2019-05-30T09:01:20.076Z,1017.98
2019-05-30T09:02:20.293Z,1017.98
2019-05-30T09:03:20.286Z,1017.97
2019-05-30T09:04:20.066Z,1017.97
2019-05-30T09:05:20.288Z,1017.98
2019-05-30T09:06:20.066Z,1017.99
2019-05-30T09:07:20.068Z,1018.00
2019-05-30T09:08:20.073Z,1017.96
2019-05-30T09:09:20.075Z,1017.99
2019-05-30T09:10:20.067Z,1017.98
2019-05-30T09:11:20.052Z,1017.95
2019-05-30T09:12:20.074Z,1017.98
2019-05-30T09:13:20.258Z,1017.97
2019-05-30T09:14:20.061Z,1017.97
2019-05-30T09:15:22.029Z,1017.95
2019-05-30T09:16:20.250Z,1017.97
2019-05-30T09:17:20.272Z,1017.95
2019-05-30T09:18:20.049Z,1017.97
2019-05-30T09:19:20.044Z,1017.98
2019-05-30T09:20:20.056Z,1017.98
2019-05-30T09:21:20.252Z,1017.97
2019-05-30T09:22:20.055Z,1017.95
2019-05-30T09:23:20.034Z,1017.97
2019-05-30T09:24:20.056Z,1017.97
2019-05-30T09:25:20.029Z,1017.99
2019-05-30T09:26:20.078Z,1017.97
2019-05-30T09:27:20.026Z,1017.91
2019-05-30T09:28:20.028Z,1017.91
2019-05-30T09:29:20.259Z,1017.89
2019-05-30T09:30:20.026Z,1017.88
2019-05-30T09:31:20.239Z,1017.91
2019-05-30T09:32:20.050Z,1017.90
2019-05-30T09:33:20.034Z,1017.91
2019-05-30T09:34:20.062Z,1017.92
2019-05-30T09:35:20.034Z,1017.89
2019-05-30T09:36:20.219Z,1017.93
2019-05-30T09:37:20.233Z,1017.94
2019-05-30T09:38:20.008Z,1018.00
2019-05-30T09:39:20.025Z,1017.95
2019-05-30T09:40:20.208Z,1017.98
2019-05-30T09:41:20.005Z,1017.98
2019-05-30T09:42:20.146Z,1017.99
2019-05-30T09:43:20.007Z,1018.03
2019-05-30T09:44:20.007Z,1018.05
2019-05-30T09:45:20.001Z,1018.08
2019-05-30T09:46:19.995Z,1018.15
2019-05-30T09:47:20.207Z,1018.17
2019-05-30T09:48:20.020Z,1018.21
2019-05-30T09:49:19.998Z,1018.23
2019-05-30T09:50:19.994Z,1018.25
2019-05-30T09:51:19.987Z,1018.25
2019-05-30T09:52:19.987Z,1018.29
2019-05-30T09:53:20.044Z,1018.25
2019-05-30T09:54:19.988Z,1018.26
2019-05-30T09:55:21.016Z,1018.26
2019-05-30T09:56:19.984Z,1018.28
2019-05-30T09:57:19.999Z,1018.27
2019-05-30T09:58:20.201Z,1018.26
2019-05-30T09:59:19.979Z,1018.30
2019-05-30T10:00:19.986Z,1018.27
2019-05-30T10:01:20.184Z,1018.28
2019-05-30T10:02:19.976Z,1018.29
2019-05-30T10:03:19.976Z,1018.28
2019-05-30T10:04:19.969Z,1018.29
2019-05-30T10:05:23.345Z,1018.31
2019-05-30T10:06:28.902Z,1018.32
2019-05-30T10:07:19.970Z,1018.32
2019-05-30T10:08:19.967Z,1018.29
2019-05-30T10:09:19.966Z,1018.28
2019-05-30T10:10:20.167Z,1018.33
2019-05-30T10:11:20.165Z,1018.33
2019-05-30T10:12:19.981Z,1018.32
2019-05-30T10:13:20.025Z,1018.34
2019-05-30T10:14:19.984Z,1018.31
2019-05-30T10:15:20.011Z,1018.34
2019-05-30T10:16:19.957Z,1018.31
2019-05-30T10:17:19.974Z,1018.30
2019-05-30T10:18:19.960Z,1018.33
2019-05-30T10:19:19.954Z,1018.33
2019-05-30T10:20:19.955Z,1018.31
2019-05-30T10:21:19.956Z,1018.29
2019-05-30T10:22:19.947Z,1018.30
2019-05-30T10:23:19.939Z,1018.26
2019-05-30T10:24:19.955Z,1018.26
2019-05-30T10:25:19.955Z,1018.24
2019-05-30T10:26:19.938Z,1018.24
2019-05-30T10:27:19.967Z,1018.25
2019-05-30T10:28:19.952Z,1018.21
2019-05-30T10:29:19.942Z,1018.22
2019-05-30T10:30:19.936Z,1018.25
2019-05-30T10:31:19.939Z,1018.22
2019-05-30T10:32:19.962Z,1018.22
2019-05-30T10:33:20.173Z,1018.20
2019-05-30T10:34:19.927Z,1018.17
2019-05-30T10:35:19.929Z,1018.19
2019-05-30T10:36:20.285Z,1018.23
2019-05-30T10:37:19.930Z,1018.19
2019-05-30T10:38:20.294Z,1018.17
2019-05-30T10:39:19.921Z,1018.19
2019-05-30T10:40:19.926Z,1018.20
2019-05-30T10:41:19.914Z,1018.20
2019-05-30T10:42:19.934Z,1018.25
2019-05-30T10:43:19.928Z,1018.23
2019-05-30T10:44:19.915Z,1018.24
2019-05-30T10:45:19.911Z,1018.27
2019-05-30T10:46:20.111Z,1018.26
2019-05-30T10:47:19.912Z,1018.30
2019-05-30T10:48:20.939Z,1018.27
2019-05-30T10:49:33.609Z,1018.30
2019-05-30T10:50:19.942Z,1018.28
2019-05-30T10:51:19.956Z,1018.28
2019-05-30T10:52:19.904Z,1018.27
2019-05-30T10:53:19.902Z,1018.28
2019-05-30T10:54:19.902Z,1018.26
2019-05-30T10:55:20.102Z,1018.29
2019-05-30T10:56:19.931Z,1018.28
2019-05-30T10:57:19.897Z,1018.26
2019-05-30T10:58:19.906Z,1018.23
2019-05-30T10:59:19.893Z,1018.25
2019-05-30T11:00:19.887Z,1018.26
2019-05-30T11:01:20.128Z,1018.26
2019-05-30T11:02:19.888Z,1018.28
2019-05-30T11:03:19.885Z,1018.29
2019-05-30T11:04:19.898Z,1018.28
2019-05-30T11:05:19.887Z,1018.32
2019-05-30T11:06:19.877Z,1018.28
2019-05-30T11:07:19.886Z,1018.33
2019-05-30T11:08:19.890Z,1018.29
2019-05-30T11:09:19.890Z,1018.33
2019-05-30T11:10:19.887Z,1018.31
2019-05-30T11:11:20.075Z,1018.34
2019-05-30T11:12:19.907Z,1018.38
2019-05-30T11:13:19.897Z,1018.33
2019-05-30T11:14:19.906Z,1018.34
2019-05-30T11:15:19.888Z,1018.35
2019-05-30T11:16:19.886Z,1018.39
2019-05-30T11:17:19.866Z,1018.36
2019-05-30T11:18:19.902Z,1018.36
2019-05-30T11:19:19.875Z,1018.38
2019-05-30T11:20:19.950Z,1018.40
2019-05-30T11:21:19.866Z,1018.36
2019-05-30T11:22:19.880Z,1018.36
2019-05-30T11:23:19.872Z,1018.34
2019-05-30T11:24:19.859Z,1018.36
2019-05-30T11:25:19.860Z,1018.37
2019-05-30T11:26:19.863Z,1018.33
2019-05-30T11:27:19.859Z,1018.28
2019-05-30T11:28:19.852Z,1018.35
2019-05-30T11:29:19.852Z,1018.34
2019-05-30T11:30:19.867Z,1018.32
2019-05-30T11:31:19.848Z,1018.34
2019-05-30T11:32:19.846Z,1018.32
2019-05-30T11:33:19.847Z,1018.30
2019-05-30T11:34:19.848Z,1018.33
2019-05-30T11:35:19.913Z,1018.30
2019-05-30T11:36:19.851Z,1018.34
2019-05-30T11:37:19.844Z,1018.35
2019-05-30T11:38:19.861Z,1018.31
2019-05-30T11:39:19.858Z,1018.33
2019-05-30T11:40:19.850Z,1018.32
2019-05-30T11:41:19.844Z,1018.27
2019-05-30T11:42:19.848Z,1018.28
2019-05-30T11:43:19.845Z,1018.31
2019-05-30T11:44:19.851Z,1018.29
2019-05-30T11:45:19.832Z,1018.26
2019-05-30T11:46:19.845Z,1018.26
2019-05-30T11:47:19.856Z,1018.28
2019-05-30T11:48:19.832Z,1018.29
2019-05-30T11:49:19.828Z,1018.34
2019-05-30T11:50:19.825Z,1018.33
2019-05-30T11:51:19.828Z,1018.35
2019-05-30T11:52:19.824Z,1018.35
2019-05-30T11:53:19.822Z,1018.39
2019-05-30T11:54:19.828Z,1018.35
2019-05-30T11:55:19.825Z,1018.35
2019-05-30T11:56:19.823Z,1018.35
2019-05-30T11:57:19.843Z,1018.37
2019-05-30T11:58:20.091Z,1018.35
2019-05-30T11:59:19.827Z,1018.35
2019-05-30T12:00:19.813Z,1018.37
2019-05-30T12:01:19.812Z,1018.35
2019-05-30T12:02:19.819Z,1018.35
2019-05-30T12:03:19.836Z,1018.31
2019-05-30T12:04:19.804Z,1018.40
2019-05-30T12:05:19.809Z,1018.41
2019-05-30T12:06:19.806Z,1018.37
2019-05-30T12:07:35.357Z,1018.43